Time;durP1;ratioP1;P1;durP2;ratioP2;P2;SDS_P1;SDS_P2;PMS_P1;PMS_P2;Temp;Humidity;BMP_temperature;BMP_pressure;BME280_temperature;BME280_humidity;BME280_pressure;Samples;Min_cycle;Max_cycle;Signal;HPM_P1;HPM_P2
2022/08/30 00:02:49;;;;;;;3.63;2.80;;;15.80;99.90;;;;;;5087617;27;20383;-80
2022/08/30 00:05:16;;;;;;;4.75;3.40;;;15.80;99.90;;;;;;5138379;27;20048;-80
2022/08/30 00:07:41;;;;;;;3.67;2.22;;;15.80;99.90;;;;;;5137673;27;20090;-81
2022/08/30 00:10:08;;;;;;;5.43;3.47;;;15.70;99.90;;;;;;5135171;27;20055;-75
2022/08/30 00:12:34;;;;;;;3.95;3.05;;;15.70;99.90;;;;;;5127184;27;20057;-78
2022/08/30 00:15:00;;;;;;;4.47;2.83;;;15.70;99.90;;;;;;5132809;27;20038;-83
2022/08/30 00:17:26;;;;;;;4.25;2.42;;;15.70;99.90;;;;;;5131254;27;20055;-77
2022/08/30 00:19:51;;;;;;;2.78;2.53;;;15.80;99.90;;;;;;5131200;27;20042;-83
2022/08/30 00:22:17;;;;;;;4.28;3.35;;;15.80;99.90;;;;;;5137467;27;20053;-79
2022/08/30 00:24:43;;;;;;;3.83;2.47;;;15.80;99.90;;;;;;5138033;27;20711;-77
2022/08/30 00:27:08;;;;;;;3.83;2.88;;;15.80;99.90;;;;;;5118268;27;20489;-79
2022/08/30 00:29:34;;;;;;;5.20;2.95;;;15.80;99.90;;;;;;5136583;27;20129;-75
2022/08/30 00:32:01;;;;;;;5.03;3.00;;;15.80;99.90;;;;;;5139346;27;20043;-80
2022/08/30 00:34:27;;;;;;;3.55;2.78;;;15.80;99.90;;;;;;5137435;27;20094;-76
2022/08/30 00:36:53;;;;;;;5.70;3.40;;;15.80;99.90;;;;;;5136616;27;20054;-76
2022/08/30 00:39:19;;;;;;;5.47;3.13;;;15.80;99.90;;;;;;5136885;27;20050;-81
2022/08/30 00:41:45;;;;;;;4.15;2.60;;;15.80;99.90;;;;;;5138537;27;20047;-79
2022/08/30 00:44:11;;;;;;;3.30;2.78;;;15.90;99.90;;;;;;5125575;27;20407;-81
2022/08/30 00:46:37;;;;;;;6.72;2.50;;;15.80;99.90;;;;;;5133503;27;20071;-79
2022/08/30 00:49:06;;;;;;;4.45;3.03;;;15.90;99.90;;;;;;5127150;27;20075;-79
2022/08/30 00:51:32;;;;;;;3.10;2.80;;;15.90;99.90;;;;;;5104299;27;20479;-79
2022/08/30 00:53:59;;;;;;;3.67;3.03;;;15.90;99.90;;;;;;5121914;27;20042;-80
2022/08/30 00:56:27;;;;;;;3.38;3.05;;;15.90;99.90;;;;;;5133336;27;20371;-79
2022/08/30 00:58:55;;;;;;;5.07;3.30;;;15.90;99.90;;;;;;5133400;27;20231;-79
2022/08/30 01:01:21;;;;;;;3.83;3.42;;;15.90;99.90;;;;;;5135230;27;20039;-83
2022/08/30 01:03:48;;;;;;;5.25;3.90;;;15.90;99.90;;;;;;5128997;27;20600;-79
2022/08/30 01:06:14;;;;;;;3.58;3.22;;;15.90;99.90;;;;;;5137794;27;20050;-77
2022/08/30 01:08:41;;;;;;;4.05;2.97;;;15.90;99.90;;;;;;5121123;27;20050;-80
2022/08/30 01:11:08;;;;;;;3.53;3.22;;;15.90;99.90;;;;;;5136769;27;20054;-79
2022/08/30 01:13:34;;;;;;;5.70;3.33;;;15.90;99.90;;;;;;5134399;27;20608;-82
2022/08/30 01:16:01;;;;;;;4.32;3.05;;;15.80;99.90;;;;;;5138983;27;20038;-80
2022/08/30 01:18:28;;;;;;;6.10;3.17;;;15.80;99.90;;;;;;5128648;27;20057;-81
2022/08/30 01:21:25;;;;;;;4.88;3.13;;;15.70;99.90;;;;;;5124829;27;20055;-78
2022/08/30 01:23:54;;;;;;;5.05;3.80;;;15.70;99.90;;;;;;5133866;27;20043;-82
2022/08/30 01:26:21;;;;;;;3.75;3.03;;;15.70;99.90;;;;;;5133458;27;20501;-80
2022/08/30 01:28:50;;;;;;;5.18;3.97;;;15.70;99.90;;;;;;5137465;27;20191;-80
2022/08/30 01:31:16;;;;;;;4.82;3.30;;;15.60;99.90;;;;;;5128631;27;20373;-79
2022/08/30 01:33:42;;;;;;;4.53;3.72;;;15.60;99.90;;;;;;5122324;27;20504;-80
2022/08/30 01:36:12;;;;;;;4.82;3.20;;;15.50;99.90;;;;;;5129455;27;20122;-81
2022/08/30 01:38:46;;;;;;;3.65;3.30;;;15.50;99.90;;;;;;5136330;27;20125;-79
2022/08/30 01:41:18;;;;;;;6.75;3.80;;;15.50;99.90;;;;;;5127500;27;20127;-76
2022/08/30 01:43:44;;;;;;;5.88;4.03;;;15.50;99.90;;;;;;5137309;27;20047;-79
2022/08/30 01:46:11;;;;;;;4.55;3.80;;;15.50;99.90;;;;;;5137350;27;20131;-79
2022/08/30 01:48:38;;;;;;;5.90;3.70;;;15.40;99.90;;;;;;5133510;27;20047;-79
2022/08/30 01:51:05;;;;;;;6.47;4.30;;;15.40;99.90;;;;;;5119381;27;20055;-79
2022/08/30 01:53:31;;;;;;;4.47;3.30;;;15.40;99.90;;;;;;5130333;27;20085;-81
2022/08/30 01:55:57;;;;;;;6.97;4.18;;;15.40;99.90;;;;;;5132045;27;20070;-79
2022/08/30 01:58:23;;;;;;;3.60;3.28;;;15.40;99.90;;;;;;5127577;27;20140;-79
2022/08/30 02:00:49;;;;;;;3.60;3.28;;;15.40;99.90;;;;;;5116227;28;20477;-82
2022/08/30 02:03:14;;;;;;;4.15;3.22;;;15.40;99.90;;;;;;5127378;27;20576;-80
2022/08/30 02:05:40;;;;;;;4.57;3.28;;;15.30;99.90;;;;;;5129000;27;20046;-80
2022/08/30 02:08:06;;;;;;;3.78;3.33;;;15.30;99.90;;;;;;5136480;27;20050;-76
2022/08/30 02:10:32;;;;;;;5.63;4.28;;;15.30;99.90;;;;;;5137609;27;20058;-79
2022/08/30 02:12:58;;;;;;;4.10;3.38;;;15.30;99.90;;;;;;5131610;27;20071;-79
2022/08/30 02:15:24;;;;;;;8.20;3.75;;;15.30;99.90;;;;;;5128748;27;20042;-82
2022/08/30 02:17:50;;;;;;;3.75;3.35;;;15.20;99.90;;;;;;5122996;27;20082;-81
2022/08/30 02:20:16;;;;;;;5.10;3.08;;;15.20;99.90;;;;;;5110606;27;20150;-82
2022/08/30 02:22:42;;;;;;;9.38;5.07;;;15.30;99.90;;;;;;5134815;27;20062;-79
2022/08/30 02:25:08;;;;;;;5.00;3.40;;;15.30;99.90;;;;;;5134457;27;20050;-79
2022/08/30 02:27:34;;;;;;;5.40;3.40;;;15.30;99.90;;;;;;5128706;27;20154;-77
2022/08/30 02:30:00;;;;;;;4.32;3.20;;;15.30;99.90;;;;;;5114687;27;20490;-81
2022/08/30 02:32:25;;;;;;;4.07;3.33;;;15.30;99.90;;;;;;5133763;27;20036;-75
2022/08/30 02:34:51;;;;;;;5.50;3.08;;;15.30;99.90;;;;;;5131841;27;20424;-82
2022/08/30 02:37:17;;;;;;;5.90;3.70;;;15.30;99.90;;;;;;5129698;27;20828;-78
2022/08/30 02:39:43;;;;;;;5.05;3.55;;;15.20;99.90;;;;;;5128798;27;20046;-79
2022/08/30 02:42:08;;;;;;;6.63;3.75;;;15.20;99.90;;;;;;5135666;27;20054;-80
2022/08/30 02:44:34;;;;;;;3.85;3.30;;;15.20;99.90;;;;;;5128609;27;20077;-79
2022/08/30 02:47:00;;;;;;;6.13;3.97;;;15.20;99.90;;;;;;5130407;27;20479;-77
2022/08/30 02:49:25;;;;;;;6.63;3.40;;;15.20;99.90;;;;;;5140661;27;20082;-81
2022/08/30 02:51:51;;;;;;;5.18;3.97;;;15.10;99.90;;;;;;5137633;27;20053;-81
2022/08/30 02:54:18;;;;;;;5.43;4.18;;;15.10;99.90;;;;;;5141330;27;20081;-77
2022/08/30 02:56:48;;;;;;;9.57;4.03;;;15.10;99.90;;;;;;5131840;27;20050;-79
2022/08/30 02:59:15;;;;;;;7.38;4.57;;;15.10;99.90;;;;;;5132681;27;20130;-79
2022/08/30 03:01:41;;;;;;;4.85;4.28;;;15.00;99.90;;;;;;5139244;27;20410;-80
2022/08/30 03:04:08;;;;;;;6.45;3.83;;;15.00;99.90;;;;;;5141809;27;20049;-80
2022/08/30 03:06:34;;;;;;;4.40;3.90;;;15.00;99.90;;;;;;5132930;27;20054;-80
2022/08/30 03:09:00;;;;;;;4.15;3.72;;;15.00;99.90;;;;;;5133720;27;20050;-79
2022/08/30 03:11:26;;;;;;;4.97;3.78;;;14.90;99.90;;;;;;5140522;27;20053;-80
2022/08/30 03:13:51;;;;;;;5.45;4.07;;;14.90;99.90;;;;;;5134176;27;20141;-83
2022/08/30 03:16:17;;;;;;;7.28;3.90;;;14.80;99.90;;;;;;5137682;27;20039;-79
2022/08/30 03:18:43;;;;;;;9.02;3.90;;;14.80;99.90;;;;;;5141817;27;20078;-77
2022/08/30 03:21:13;;;;;;;6.13;4.80;;;14.80;99.90;;;;;;5138428;27;20557;-78
2022/08/30 03:23:39;;;;;;;7.22;4.15;;;14.70;99.90;;;;;;5138890;27;20043;-80
2022/08/30 03:26:06;;;;;;;6.00;3.70;;;14.70;99.90;;;;;;5134897;27;20053;-79
2022/08/30 03:28:32;;;;;;;4.85;3.53;;;14.70;99.90;;;;;;5141702;27;20070;-75
2022/08/30 03:30:59;;;;;;;4.95;4.05;;;14.60;99.90;;;;;;5117338;27;20067;-79
2022/08/30 03:33:25;;;;;;;6.15;3.95;;;14.60;99.90;;;;;;5133939;27;20191;-77
2022/08/30 03:35:51;;;;;;;6.85;4.22;;;14.60;99.90;;;;;;5139660;27;20061;-79
2022/08/30 03:38:17;;;;;;;5.47;4.10;;;14.50;99.90;;;;;;5122772;27;20505;-78
2022/08/30 03:40:43;;;;;;;5.57;4.00;;;14.50;99.90;;;;;;5137811;27;20071;-78
2022/08/30 03:43:09;;;;;;;6.97;3.63;;;14.40;99.90;;;;;;5137276;27;20049;-81
2022/08/30 03:45:36;;;;;;;4.20;3.80;;;14.40;99.90;;;;;;5131357;27;20086;-79
2022/08/30 03:48:02;;;;;;;6.60;4.30;;;14.30;99.90;;;;;;5139273;27;20489;-79
2022/08/30 03:50:29;;;;;;;3.80;3.50;;;14.30;99.90;;;;;;5129585;27;20043;-76
2022/08/30 03:52:55;;;;;;;6.75;4.22;;;14.20;99.90;;;;;;5132820;27;20119;-79
2022/08/30 03:55:21;;;;;;;5.03;3.85;;;14.20;99.90;;;;;;5130535;27;20122;-82
2022/08/30 03:57:46;;;;;;;4.88;4.40;;;14.20;99.90;;;;;;5139939;27;20046;-78
2022/08/30 04:00:14;;;;;;;7.78;4.30;;;14.20;99.90;;;;;;5138936;27;20050;-81
2022/08/30 04:02:40;;;;;;;5.65;4.38;;;14.20;99.90;;;;;;5129805;27;20046;-79
2022/08/30 04:05:07;;;;;;;6.15;4.60;;;14.10;99.90;;;;;;5132658;27;20049;-76
2022/08/30 04:07:33;;;;;;;5.78;4.50;;;14.10;99.90;;;;;;5133711;27;20086;-79
2022/08/30 04:09:59;;;;;;;4.93;4.13;;;14.10;99.90;;;;;;5129765;27;20137;-80
2022/08/30 04:12:25;;;;;;;6.88;4.53;;;14.00;99.90;;;;;;5130571;27;20054;-78
2022/08/30 04:14:51;;;;;;;5.45;3.40;;;14.00;99.90;;;;;;5129176;27;20235;-82
2022/08/30 04:17:17;;;;;;;4.65;3.53;;;14.00;99.90;;;;;;5137077;27;21379;-80
2022/08/30 04:19:43;;;;;;;6.13;3.90;;;13.90;99.90;;;;;;5131201;27;20038;-78
2022/08/30 04:22:09;;;;;;;6.35;4.28;;;13.90;99.90;;;;;;5139109;27;20054;-80
2022/08/30 04:24:37;;;;;;;6.38;3.90;;;13.80;99.90;;;;;;5116382;27;20054;-79
2022/08/30 04:27:03;;;;;;;4.35;3.88;;;13.80;99.90;;;;;;5137167;27;20131;-80
2022/08/30 04:29:29;;;;;;;9.07;3.75;;;13.70;99.90;;;;;;5140215;27;20071;-81
2022/08/30 04:31:55;;;;;;;4.13;3.67;;;13.70;99.90;;;;;;5140146;27;20051;-75
2022/08/30 04:34:21;;;;;;;4.30;3.75;;;13.60;99.90;;;;;;5123963;27;20043;-82
2022/08/30 04:36:48;;;;;;;6.28;3.70;;;13.60;99.90;;;;;;5123610;27;20592;-79
2022/08/30 04:39:13;;;;;;;7.68;4.07;;;13.60;99.90;;;;;;5136137;27;20114;-77
2022/08/30 04:41:39;;;;;;;4.55;3.60;;;13.60;99.90;;;;;;5129011;27;20089;-74
2022/08/30 04:44:06;;;;;;;4.28;3.80;;;13.60;99.90;;;;;;5126652;27;20062;-77
2022/08/30 04:46:34;;;;;;;6.13;3.45;;;13.60;99.90;;;;;;5124030;27;20123;-79
2022/08/30 04:49:00;;;;;;;4.57;3.90;;;13.50;99.90;;;;;;5126431;27;20410;-80
2022/08/30 04:51:26;;;;;;;5.25;3.72;;;13.50;99.90;;;;;;5124480;27;20054;-75
2022/08/30 04:53:52;;;;;;;3.70;3.38;;;13.50;99.90;;;;;;5138211;27;20051;-82
2022/08/30 04:56:23;;;;;;;6.05;4.00;;;13.50;99.90;;;;;;5127115;27;20051;-80
2022/08/30 04:58:54;;;;;;;5.55;4.32;;;13.50;99.90;;;;;;5104885;27;20790;-79
2022/08/30 05:01:26;;;;;;;6.07;4.50;;;13.50;99.90;;;;;;5123850;27;20046;-78
2022/08/30 05:03:53;;;;;;;4.78;3.63;;;13.50;99.90;;;;;;5123497;27;20502;-80
2022/08/30 05:06:19;;;;;;;6.57;4.20;;;13.40;99.90;;;;;;5120251;27;20047;-83
2022/08/30 05:08:46;;;;;;;5.55;4.28;;;13.40;99.90;;;;;;5128841;27;20061;-78
2022/08/30 05:11:12;;;;;;;4.75;4.28;;;13.40;99.90;;;;;;5137938;27;20046;-83
2022/08/30 05:13:38;;;;;;;7.90;4.15;;;13.40;99.90;;;;;;5124598;27;20770;-82
2022/08/30 05:16:05;;;;;;;5.30;3.90;;;13.40;99.90;;;;;;5133687;27;20038;-77
2022/08/30 05:18:31;;;;;;;4.88;4.00;;;13.40;99.90;;;;;;5124443;27;20116;-77
2022/08/30 05:21:04;;;;;;;7.22;4.00;;;13.40;99.90;;;;;;5131551;27;20054;-79
2022/08/30 05:23:30;;;;;;;4.47;3.47;;;13.40;99.90;;;;;;5132525;27;20050;-76
2022/08/30 05:25:56;;;;;;;5.80;3.80;;;13.40;99.90;;;;;;5127944;27;20050;-79
2022/08/30 05:28:21;;;;;;;4.45;3.90;;;13.50;99.90;;;;;;5129914;27;20083;-80
2022/08/30 05:30:47;;;;;;;5.80;3.40;;;13.50;99.90;;;;;;5132790;27;20150;-76
2022/08/30 05:33:12;;;;;;;4.18;3.42;;;13.50;99.90;;;;;;5131422;27;20047;-78
2022/08/30 05:35:39;;;;;;;5.60;3.92;;;13.60;99.90;;;;;;5133951;27;20050;-78
2022/08/30 05:38:05;;;;;;;5.85;3.75;;;13.60;99.90;;;;;;5113984;27;20057;-75
2022/08/30 05:40:31;;;;;;;4.03;3.25;;;13.60;99.90;;;;;;5132918;27;20038;-79
2022/08/30 05:42:56;;;;;;;4.97;3.42;;;13.60;99.90;;;;;;5130365;27;20046;-77
2022/08/30 05:45:22;;;;;;;3.97;3.55;;;13.70;99.90;;;;;;5115713;27;20050;-76
2022/08/30 05:47:48;;;;;;;4.22;3.72;;;13.70;99.90;;;;;;5104467;27;20502;-78
2022/08/30 05:50:14;;;;;;;4.30;3.75;;;13.80;99.90;;;;;;5131196;27;20764;-76
2022/08/30 05:52:42;;;;;;;4.78;3.35;;;13.80;99.90;;;;;;5131786;27;20115;-77
2022/08/30 05:55:09;;;;;;;5.75;3.95;;;13.90;99.90;;;;;;5132590;27;20478;-75
2022/08/30 05:57:37;;;;;;;3.85;3.17;;;14.00;99.90;;;;;;5125968;27;20039;-75
2022/08/30 06:00:09;;;;;;;5.15;3.40;;;14.00;99.90;;;;;;5112347;27;20042;-75
2022/08/30 06:02:35;;;;;;;4.63;3.75;;;14.10;99.90;;;;;;5130772;27;20113;-77
2022/08/30 06:05:03;;;;;;;4.05;3.65;;;14.20;99.90;;;;;;5108900;27;20084;-78
2022/08/30 06:07:29;;;;;;;5.22;3.78;;;14.20;99.90;;;;;;5131831;27;20966;-81
2022/08/30 06:09:54;;;;;;;4.07;3.67;;;14.30;99.90;;;;;;5131038;27;20043;-77
2022/08/30 06:12:20;;;;;;;4.97;4.20;;;14.30;99.90;;;;;;5137964;27;20039;-80
2022/08/30 06:14:46;;;;;;;4.75;3.78;;;14.40;99.90;;;;;;5136035;27;20049;-77
2022/08/30 06:17:11;;;;;;;3.83;3.40;;;14.40;99.90;;;;;;5136839;27;20130;-77
2022/08/30 06:19:37;;;;;;;6.03;3.72;;;14.50;99.90;;;;;;5132304;27;20041;-76
2022/08/30 06:22:03;;;;;;;5.22;4.22;;;14.60;99.90;;;;;;5136795;27;20046;-76
2022/08/30 06:24:29;;;;;;;6.15;4.13;;;14.70;99.90;;;;;;5133746;27;20091;-79
2022/08/30 06:26:54;;;;;;;5.72;3.25;;;14.80;99.90;;;;;;5133215;27;20031;-76
2022/08/30 06:29:21;;;;;;;8.05;4.55;;;14.80;99.90;;;;;;5134227;27;20066;-77
2022/08/30 06:31:47;;;;;;;4.78;3.17;;;14.90;99.90;;;;;;5134396;27;20042;-75
2022/08/30 06:34:14;;;;;;;6.82;4.35;;;15.10;99.90;;;;;;5136199;27;20049;-75
2022/08/30 06:36:39;;;;;;;8.15;3.25;;;15.20;99.90;;;;;;5134229;27;20099;-78
2022/08/30 06:39:05;;;;;;;5.95;3.63;;;15.30;99.90;;;;;;5133259;27;20050;-76
2022/08/30 06:41:34;;;;;;;8.25;3.42;;;15.40;99.90;;;;;;5135416;27;20038;-76
2022/08/30 06:44:01;;;;;;;3.72;2.97;;;15.50;99.90;;;;;;5133722;27;20072;-77
2022/08/30 06:46:33;;;;;;;7.95;3.40;;;15.70;99.90;;;;;;5116617;27;20071;-78
2022/08/30 06:48:59;;;;;;;5.90;3.72;;;15.80;99.90;;;;;;5131279;27;20392;-77
2022/08/30 06:51:28;;;;;;;4.35;3.10;;;15.90;99.90;;;;;;5134230;27;20045;-76
2022/08/30 06:53:55;;;;;;;5.03;3.10;;;16.00;99.90;;;;;;5128617;27;20034;-77
2022/08/30 06:56:22;;;;;;;4.22;3.33;;;16.10;99.90;;;;;;5135437;27;20053;-76
2022/08/30 06:58:48;;;;;;;4.95;3.83;;;16.30;99.90;;;;;;5132451;27;20047;-78
2022/08/30 07:01:16;;;;;;;4.18;3.15;;;16.40;99.90;;;;;;5115600;27;20047;-75
2022/08/30 07:03:42;;;;;;;4.53;3.17;;;16.60;99.90;;;;;;5132837;27;20522;-81
2022/08/30 07:06:09;;;;;;;5.32;2.80;;;16.70;99.90;;;;;;5124959;27;20123;-77
2022/08/30 07:08:35;;;;;;;3.58;2.95;;;16.90;99.90;;;;;;5119835;27;20764;-76
2022/08/30 07:11:01;;;;;;;2.92;2.60;;;17.20;99.90;;;;;;5135350;27;20043;-78
2022/08/30 07:13:27;;;;;;;3.88;2.78;;;17.50;99.90;;;;;;5121678;27;20050;-76
2022/08/30 07:15:53;;;;;;;4.50;3.17;;;18.00;99.90;;;;;;5130584;27;20448;-77
2022/08/30 07:21:15;;;;;;;4.10;1.80;;;21.00;99.90;;;;;;5135134;27;20050;-76
2022/08/30 07:23:45;;;;;;;3.95;1.60;;;22.80;99.90;;;;;;5123623;27;20623;-78
2022/08/30 07:26:14;;;;;;;2.00;1.80;;;24.00;99.90;;;;;;5133429;27;20152;-78
2022/08/30 07:28:43;;;;;;;2.42;1.30;;;24.60;99.90;;;;;;5135334;27;20069;-80
2022/08/30 07:31:10;;;;;;;3.92;1.95;;;25.30;97.50;;;;;;5128017;27;20061;-78
2022/08/30 07:33:36;;;;;;;2.60;1.27;;;25.70;96.10;;;;;;5105869;27;20058;-74
2022/08/30 07:36:03;;;;;;;2.50;1.30;;;26.00;94.80;;;;;;5127347;27;20039;-80
2022/08/30 07:38:30;;;;;;;2.88;1.50;;;25.80;93.00;;;;;;5124943;27;20046;-72
2022/08/30 07:40:59;;;;;;;2.28;1.50;;;26.10;92.80;;;;;;5117477;27;20046;-78
2022/08/30 07:43:29;;;;;;;1.95;1.20;;;26.50;92.50;;;;;;5133368;27;20043;-75
2022/08/30 07:46:00;;;;;;;3.33;1.45;;;26.50;91.50;;;;;;5119867;27;20042;-76
2022/08/30 07:48:26;;;;;;;2.88;1.02;;;26.50;90.90;;;;;;5137920;27;20091;-79
2022/08/30 07:50:51;;;;;;;2.13;1.20;;;26.50;90.30;;;;;;5123077;27;20043;-77
2022/08/30 07:53:17;;;;;;;1.13;0.93;;;26.60;90.20;;;;;;5104729;27;20042;-75
2022/08/30 07:55:43;;;;;;;1.65;1.02;;;27.00;90.60;;;;;;5123358;27;20074;-82
2022/08/30 07:58:08;;;;;;;0.90;0.90;;;27.20;89.10;;;;;;5124048;27;20134;-80
2022/08/30 08:00:34;;;;;;;4.97;1.45;;;27.40;88.30;;;;;;5108866;27;20050;-76
2022/08/30 08:03:07;;;;;;;1.83;1.13;;;27.20;88.00;;;;;;5131309;27;20043;-78
2022/08/30 08:05:42;;;;;;;1.42;1.27;;;26.90;83.80;;;;;;5094056;27;20055;-79
2022/08/30 08:08:08;;;;;;;1.73;1.20;;;27.00;80.30;;;;;;5139676;27;20050;-78
2022/08/30 08:10:36;;;;;;;1.63;1.05;;;27.60;86.30;;;;;;5139693;27;20050;-74
2022/08/30 08:13:03;;;;;;;1.17;0.90;;;27.70;84.40;;;;;;5139663;27;20058;-79
2022/08/30 08:15:29;;;;;;;1.98;1.35;;;27.90;83.40;;;;;;5139333;27;20050;-80
2022/08/30 08:17:55;;;;;;;1.65;0.88;;;27.80;83.30;;;;;;5126027;27;20484;-79
2022/08/30 08:20:21;;;;;;;3.00;1.20;;;27.70;81.30;;;;;;5141326;27;20121;-80
2022/08/30 08:22:47;;;;;;;1.10;0.95;;;27.40;82.90;;;;;;5140029;27;20077;-77
2022/08/30 08:25:13;;;;;;;2.45;1.25;;;27.00;82.40;;;;;;5136153;27;20137;-79
2022/08/30 08:27:39;;;;;;;2.33;1.10;;;27.30;82.50;;;;;;5138075;27;20066;-80
2022/08/30 08:30:06;;;;;;;6.85;1.30;;;27.10;82.40;;;;;;5139809;27;20051;-80
2022/08/30 08:32:31;;;;;;;1.10;1.00;;;27.20;80.80;;;;;;5133382;27;20050;-79
2022/08/30 08:34:57;;;;;;;1.58;1.00;;;26.90;80.10;;;;;;5131238;27;20058;-77
2022/08/30 08:37:23;;;;;;;2.13;0.98;;;26.90;80.40;;;;;;5138256;27;20042;-76
2022/08/30 08:39:51;;;;;;;0.98;0.73;;;26.50;80.30;;;;;;5128456;27;20079;-77
2022/08/30 08:42:22;;;;;;;1.05;0.95;;;26.70;80.60;;;;;;5138044;27;20050;-82
2022/08/30 08:45:02;;;;;;;2.80;1.20;;;26.60;79.40;;;;;;5125662;27;20055;-76
2022/08/30 08:47:31;;;;;;;1.10;0.90;;;27.10;79.10;;;;;;5127845;27;20051;-79
2022/08/30 08:50:01;;;;;;;1.75;1.20;;;27.50;79.50;;;;;;5138672;27;20054;-81
2022/08/30 08:55:22;;;;;;;1.88;1.05;;;26.20;76.40;;;;;;5120491;27;20047;-78
2022/08/30 08:57:48;;;;;;;1.90;1.20;;;26.00;79.90;;;;;;5120549;27;20733;-77
2022/08/30 09:00:14;;;;;;;2.50;1.23;;;25.30;79.80;;;;;;5124479;27;20103;-76
2022/08/30 09:02:44;;;;;;;1.00;0.90;;;25.70;79.90;;;;;;5122899;27;20798;-78
2022/08/30 09:05:17;;;;;;;1.73;1.02;;;25.80;78.40;;;;;;5119995;27;20513;-79
2022/08/30 09:07:44;;;;;;;;;;;26.30;78.50;;;;;;5124644;27;20046;-81
2022/08/30 09:10:10;;;;;;;0.88;0.88;;;26.60;77.30;;;;;;5130221;27;20698;-79
2022/08/30 09:12:35;;;;;;;1.10;1.00;;;26.80;79.00;;;;;;5122017;27;20046;-80
2022/08/30 09:15:21;;;;;;;2.88;1.27;;;26.80;78.50;;;;;;5121426;27;20039;-80
2022/08/30 09:17:56;;;;;;;3.10;1.20;;;26.60;76.00;;;;;;5124675;27;20038;-78
2022/08/30 09:20:31;;;;;;;1.35;1.15;;;26.40;77.60;;;;;;5137477;27;20047;-78
2022/08/30 09:22:58;;;;;;;3.08;0.90;;;26.10;78.20;;;;;;5120179;27;20074;-80
2022/08/30 09:25:28;;;;;;;1.95;1.00;;;24.60;78.40;;;;;;5135742;27;20051;-82
2022/08/30 09:28:07;;;;;;;2.00;1.08;;;24.20;81.50;;;;;;5130368;27;20050;-81
2022/08/30 09:30:33;;;;;;;3.08;1.10;;;24.00;82.10;;;;;;5136859;27;20058;-76
2022/08/30 09:33:06;;;;;;;2.22;1.20;;;23.90;81.00;;;;;;5125333;27;20045;-79
2022/08/30 09:35:39;;;;;;;1.15;0.90;;;24.10;81.10;;;;;;5133001;27;20065;-79
2022/08/30 09:38:34;;;;;;;1.77;0.98;;;24.70;80.30;;;;;;5122980;27;20618;-77
2022/08/30 09:41:21;;;;;;;1.27;0.95;;;24.50;80.30;;;;;;5125018;27;20134;-77
2022/08/30 09:44:06;;;;;;;11.32;1.65;;;24.30;80.10;;;;;;5127477;27;20053;-74
2022/08/30 09:46:32;;;;;;;3.58;1.40;;;24.90;79.80;;;;;;5126292;27;20689;-77
2022/08/30 09:48:58;;;;;;;10.13;1.73;;;25.80;79.60;;;;;;5126435;27;20058;-79
2022/08/30 09:51:54;;;;;;;3.55;1.10;;;26.50;77.30;;;;;;5124755;27;20129;-80
2022/08/30 09:54:30;;;;;;;4.85;1.02;;;27.30;76.30;;;;;;5131773;27;20083;-81
2022/08/30 09:57:19;;;;;;;8.82;1.65;;;27.80;75.50;;;;;;5142650;27;20101;-80
2022/08/30 10:00:06;;;;;;;2.35;1.10;;;28.20;73.40;;;;;;5140677;27;20088;-78
2022/08/30 10:02:56;;;;;;;2.22;1.00;;;28.10;71.90;;;;;;5120882;27;20051;-77
2022/08/30 10:05:41;;;;;;;2.03;1.48;;;28.10;74.10;;;;;;5122377;27;20644;-83
2022/08/30 10:08:37;;;;;;;1.52;0.95;;;28.10;71.70;;;;;;5119485;27;20047;-77
2022/08/30 10:11:27;;;;;;;2.03;0.95;;;28.30;71.70;;;;;;5135251;27;20051;-75
2022/08/30 10:14:11;;;;;;;2.70;1.00;;;28.60;70.80;;;;;;5126007;27;20565;-80
2022/08/30 10:17:14;;;;;;;1.52;0.90;;;29.10;72.10;;;;;;5140782;27;20398;-81
2022/08/30 10:20:25;;;;;;;4.25;1.20;;;29.00;70.00;;;;;;5127540;27;20521;-80
2022/08/30 10:23:06;;;;;;;1.65;1.10;;;28.30;70.30;;;;;;5126220;27;20051;-77
2022/08/30 10:25:31;;;;;;;1.55;0.90;;;28.40;68.50;;;;;;5133799;27;20042;-79
2022/08/30 10:28:05;;;;;;;0.68;0.68;;;29.00;71.00;;;;;;5139393;27;20291;-81
2022/08/30 10:30:35;;;;;;;2.05;1.25;;;29.20;69.90;;;;;;5131452;27;20066;-77
2022/08/30 10:33:10;;;;;;;0.88;0.77;;;29.30;70.70;;;;;;5124701;27;20058;-79
2022/08/30 10:35:42;;;;;;;2.28;1.00;;;29.20;68.70;;;;;;5124077;27;20051;-79
2022/08/30 10:38:30;;;;;;;2.63;0.90;;;28.80;69.00;;;;;;5130848;27;20089;-76
2022/08/30 10:41:22;;;;;;;1.30;0.90;;;28.20;67.20;;;;;;5107875;27;20067;-78
2022/08/30 10:43:53;;;;;;;0.80;0.70;;;28.20;68.60;;;;;;5122287;27;20057;-79
2022/08/30 10:46:36;;;;;;;2.45;1.10;;;27.10;70.70;;;;;;5139950;27;20055;-78
2022/08/30 10:49:05;;;;;;;2.03;0.80;;;27.00;68.80;;;;;;5139013;27;20585;-81
2022/08/30 10:51:46;;;;;;;2.17;2.03;;;26.20;70.20;;;;;;5134148;27;20059;-80
2022/08/30 10:54:18;;;;;;;2.88;1.15;;;25.80;70.90;;;;;;5135471;27;20444;-79
2022/08/30 10:56:46;;;;;;;3.15;1.30;;;24.90;73.00;;;;;;5140823;27;20131;-80
2022/08/30 10:59:15;;;;;;;1.55;0.82;;;24.60;73.00;;;;;;5136620;27;20130;-80
2022/08/30 11:02:09;;;;;;;1.60;1.23;;;23.80;72.60;;;;;;5138573;27;20086;-79
2022/08/30 11:04:38;;;;;;;3.10;1.05;;;23.70;74.50;;;;;;5129657;27;20042;-77
2022/08/30 11:07:25;;;;;;;1.02;0.93;;;23.50;74.30;;;;;;5121808;27;20126;-78
2022/08/30 11:09:59;;;;;;;1.48;1.00;;;23.20;74.70;;;;;;5115308;27;20640;-79
2022/08/30 11:12:55;;;;;;;1.45;1.15;;;23.10;74.90;;;;;;5137287;27;20455;-75
2022/08/30 11:15:24;;;;;;;1.73;0.98;;;23.10;74.70;;;;;;5125088;27;20662;-75
2022/08/30 11:17:59;;;;;;;2.55;1.15;;;23.20;74.70;;;;;;5124544;27;20183;-76
2022/08/30 11:20:36;;;;;;;2.30;0.93;;;23.30;75.20;;;;;;5128388;27;20109;-74
2022/08/30 11:23:18;;;;;;;1.42;1.02;;;23.20;75.20;;;;;;5134247;27;20098;-81
2022/08/30 11:25:48;;;;;;;2.28;1.02;;;23.10;75.70;;;;;;5132156;27;20459;-78
2022/08/30 11:28:34;;;;;;;1.40;1.30;;;22.90;76.20;;;;;;5110731;27;20051;-75
2022/08/30 11:31:33;;;;;;;2.88;0.85;;;22.60;76.20;;;;;;5141831;27;20058;-80
2022/08/30 11:34:00;;;;;;;1.13;0.90;;;22.70;77.30;;;;;;5135496;27;20066;-78
2022/08/30 11:36:28;;;;;;;1.77;0.90;;;22.80;77.00;;;;;;5141260;27;20464;-78
2022/08/30 11:38:54;;;;;;;2.42;1.20;;;22.90;77.30;;;;;;5127259;27;20100;-77
2022/08/30 11:41:44;;;;;;;3.75;1.08;;;22.90;77.40;;;;;;5141934;27;20043;-78
2022/08/30 11:44:26;;;;;;;1.08;0.70;;;22.80;77.70;;;;;;5120825;27;20175;-79
2022/08/30 11:46:54;;;;;;;2.28;1.15;;;22.90;77.70;;;;;;5137277;27;20042;-77
2022/08/30 11:49:20;;;;;;;1.15;1.00;;;22.80;77.10;;;;;;5122554;27;20755;-78
2022/08/30 11:52:07;;;;;;;2.85;1.25;;;22.80;76.70;;;;;;5115419;27;20047;-79
2022/08/30 11:55:01;;;;;;;1.73;1.30;;;22.90;77.50;;;;;;5133387;27;20050;-76
2022/08/30 11:57:57;;;;;;;2.03;1.00;;;23.10;77.20;;;;;;5138546;27;20070;-74
2022/08/30 12:00:34;;;;;;;1.50;1.30;;;23.30;76.70;;;;;;5129950;27;20094;-79
2022/08/30 12:03:02;;;;;;;2.05;0.85;;;23.60;76.70;;;;;;5137026;27;20049;-81
2022/08/30 12:05:37;;;;;;;1.23;1.13;;;23.80;76.30;;;;;;5139363;27;20042;-77
2022/08/30 12:08:32;;;;;;;2.78;1.15;;;23.80;77.00;;;;;;5134675;27;20054;-77
2022/08/30 12:11:05;;;;;;;2.72;1.13;;;23.50;77.30;;;;;;5136644;27;20047;-77
2022/08/30 12:13:36;;;;;;;1.75;1.27;;;23.50;78.20;;;;;;5139197;27;20819;-77
2022/08/30 12:16:23;;;;;;;1.67;1.30;;;23.60;78.20;;;;;;5138947;27;20043;-78
2022/08/30 12:19:14;;;;;;;1.20;1.10;;;23.20;78.80;;;;;;5121539;27;20135;-75
2022/08/30 12:21:40;;;;;;;0.93;0.93;;;23.10;78.80;;;;;;5112279;27;20050;-80
2022/08/30 12:24:17;;;;;;;0.98;0.88;;;23.30;78.40;;;;;;5119568;27;20047;-74
2022/08/30 12:26:45;;;;;;;2.22;1.10;;;23.50;77.30;;;;;;5139598;27;20726;-76
2022/08/30 12:29:23;;;;;;;1.42;1.10;;;23.50;77.80;;;;;;5130989;27;20136;-78
2022/08/30 12:32:01;;;;;;;1.13;1.02;;;23.40;78.10;;;;;;5128300;27;20057;-79
2022/08/30 12:34:33;;;;;;;1.95;0.88;;;22.80;79.10;;;;;;5127690;27;21122;-76
2022/08/30 12:37:10;;;;;;;1.58;1.08;;;22.70;79.60;;;;;;5134994;27;20133;-79
2022/08/30 12:39:41;;;;;;;1.90;1.05;;;22.80;80.10;;;;;;5128227;27;20042;-77
2022/08/30 12:42:19;;;;;;;1.38;0.80;;;22.90;79.40;;;;;;5133794;27;20046;-78
2022/08/30 12:44:46;;;;;;;1.88;1.33;;;23.30;79.60;;;;;;5108997;27;20043;-78
2022/08/30 12:47:16;;;;;;;4.20;1.30;;;23.40;78.70;;;;;;5131016;27;20158;-78
2022/08/30 12:49:45;;;;;;;1.60;0.98;;;23.10;79.10;;;;;;5138738;27;20050;-79
2022/08/30 12:52:25;;;;;;;0.63;0.63;;;23.00;80.10;;;;;;5090320;27;20438;-79
2022/08/30 12:54:52;;;;;;;1.85;0.80;;;22.90;80.20;;;;;;5126334;27;20570;-81
2022/08/30 12:57:42;;;;;;;1.05;0.90;;;23.10;79.90;;;;;;5131946;27;20557;-76
2022/08/30 13:00:30;;;;;;;1.85;1.15;;;23.20;79.90;;;;;;5129433;27;20055;-78
2022/08/30 13:02:59;;;;;;;0.82;0.82;;;23.40;79.30;;;;;;5133627;27;20054;-79
2022/08/30 13:05:41;;;;;;;1.25;0.82;;;23.50;79.30;;;;;;5133738;27;20600;-77
2022/08/30 13:08:24;;;;;;;0.88;0.73;;;23.60;79.50;;;;;;5129680;27;20200;-77
2022/08/30 13:10:53;;;;;;;1.70;1.00;;;23.60;79.10;;;;;;5134229;27;20050;-79